createdAt,value
2022-10-30T00:00:28.237Z,25.80
2022-10-30T00:05:31.428Z,24.13
2022-10-30T00:10:35.814Z,27.98
2022-10-30T00:15:39.290Z,23.07
2022-10-30T00:20:42.479Z,32.03
2022-10-30T00:25:47.228Z,26.63
2022-10-30T00:30:50.340Z,38.55
2022-10-30T00:35:53.552Z,30.42
2022-10-30T00:40:58.038Z,25.33
2022-10-30T00:46:05.825Z,31.40
2022-10-30T00:51:11.598Z,28.25
2022-10-30T00:56:18.575Z,33.25
2022-10-30T01:01:25.877Z,39.05
2022-10-30T01:06:30.193Z,37.85
2022-10-30T01:11:34.885Z,44.97
2022-10-30T01:16:53.733Z,37.22
2022-10-30T01:22:21.946Z,30.00
2022-10-30T01:27:39.255Z,35.83
2022-10-30T01:33:00.091Z,33.30
2022-10-30T01:38:10.639Z,34.15
2022-10-30T01:43:15.917Z,33.28
2022-10-30T01:48:38.045Z,33.97
2022-10-30T01:53:51.883Z,41.80
2022-10-30T01:59:04.391Z,40.80
2022-10-30T02:04:09.056Z,38.28
2022-10-30T02:09:14.746Z,41.33
2022-10-30T02:14:27.985Z,36.47
2022-10-30T02:19:31.427Z,37.05
2022-10-30T02:24:35.880Z,44.75
2022-10-30T02:29:39.062Z,51.83
2022-10-30T02:34:44.090Z,45.03
2022-10-30T02:39:48.799Z,37.38
2022-10-30T02:44:51.853Z,42.70
2022-10-30T02:49:54.903Z,40.53
2022-10-30T02:54:59.293Z,47.28
2022-10-30T03:00:02.588Z,40.90
2022-10-30T03:05:06.719Z,54.47
2022-10-30T03:10:11.377Z,38.10
2022-10-30T03:15:14.693Z,38.53
2022-10-30T03:20:18.472Z,36.28
2022-10-30T03:25:23.968Z,41.08
2022-10-30T03:30:30.860Z,43.80
2022-10-30T03:35:37.633Z,38.70
2022-10-30T03:40:42.214Z,39.85
2022-10-30T03:45:50.315Z,56.57
2022-10-30T03:50:54.655Z,48.25
2022-10-30T03:56:01.402Z,43.90
2022-10-30T04:01:12.999Z,39.80
2022-10-30T04:06:19.510Z,37.75
2022-10-30T04:11:24.449Z,32.60
2022-10-30T04:16:27.799Z,37.15
2022-10-30T04:21:34.571Z,45.88
2022-10-30T04:26:39.191Z,27.23
2022-10-30T04:31:42.526Z,36.83
2022-10-30T04:36:46.089Z,36.17
2022-10-30T04:41:50.829Z,34.47
2022-10-30T04:47:00.731Z,45.03
2022-10-30T04:52:04.228Z,27.98
2022-10-30T04:57:09.386Z,41.38
2022-10-30T05:02:12.957Z,40.03
2022-10-30T05:07:18.263Z,32.55
2022-10-30T05:12:23.418Z,35.33
2022-10-30T05:22:38.297Z,43.25
2022-10-30T05:27:42.960Z,42.30
2022-10-30T05:32:46.222Z,35.60
2022-10-30T05:37:49.566Z,41.08
2022-10-30T05:42:55.403Z,34.60
2022-10-30T05:48:02.557Z,39.45
2022-10-30T05:53:09.875Z,32.80
2022-10-30T05:58:16.645Z,30.60
2022-10-30T07:57:10.664Z,25.50
2022-10-30T08:02:55.931Z,29.00
2022-10-30T08:08:06.318Z,26.75
2022-10-30T08:13:10.849Z,23.20
2022-10-30T08:23:19.894Z,23.00
2022-10-30T08:28:28.333Z,25.00
2022-10-30T08:33:35.394Z,23.42
2022-10-30T08:38:58.485Z,32.63
2022-10-30T08:44:22.574Z,21.57
2022-10-30T08:49:48.512Z,20.45
2022-10-30T08:54:55.556Z,18.75
2022-10-30T09:00:02.452Z,17.50
2022-10-30T09:05:26.130Z,16.65
2022-10-30T09:10:47.649Z,16.73
2022-10-30T09:23:07.442Z,15.25
2022-10-30T09:33:42.656Z,10.02
2022-10-30T09:39:17.848Z,13.43
2022-10-30T09:44:33.804Z,17.60
2022-10-30T09:49:55.458Z,14.70
2022-10-30T09:55:22.427Z,15.90
2022-10-30T10:00:31.681Z,14.07
2022-10-30T10:05:46.904Z,13.57
2022-10-30T10:11:26.649Z,16.50
2022-10-30T10:16:33.635Z,18.92
2022-10-30T10:21:43.248Z,13.48
2022-10-30T10:26:50.850Z,17.67
2022-10-30T10:32:05.997Z,17.75
2022-10-30T10:37:17.076Z,10.52
2022-10-30T10:42:32.373Z,17.65
2022-10-30T10:48:08.069Z,8.95
2022-10-30T10:53:18.652Z,13.05
2022-10-30T10:58:31.141Z,10.63
2022-10-30T11:03:45.454Z,12.32
2022-10-30T11:08:50.416Z,13.30
2022-10-30T11:13:55.734Z,16.25
2022-10-30T11:19:02.108Z,13.27
2022-10-30T11:24:26.787Z,13.23
2022-10-30T11:29:31.636Z,11.73
2022-10-30T11:34:36.509Z,13.95
2022-10-30T11:44:48.330Z,14.70
2022-10-30T11:49:53.860Z,12.02
2022-10-30T11:55:00.923Z,13.75
2022-10-30T12:00:14.268Z,12.38
2022-10-30T12:05:34.757Z,11.70
2022-10-30T12:10:44.177Z,13.45
2022-10-30T12:15:51.420Z,14.48
2022-10-30T12:20:57.054Z,10.20
2022-10-30T12:26:02.476Z,10.85
2022-10-30T12:31:15.026Z,14.40
2022-10-30T12:43:41.697Z,19.27
2022-10-30T12:48:51.480Z,10.90
2022-10-30T12:54:00.676Z,11.00
2022-10-30T12:59:26.072Z,12.02
2022-10-30T13:04:36.543Z,11.00
2022-10-30T13:09:44.845Z,9.52
2022-10-30T13:14:54.387Z,13.63
2022-10-30T13:19:59.952Z,12.95
2022-10-30T13:25:14.255Z,12.98
2022-10-30T13:30:19.957Z,9.32
2022-10-30T13:35:33.203Z,9.23
2022-10-30T13:40:42.320Z,9.48
2022-10-30T14:29:45.711Z,12.30
2022-10-30T14:34:58.700Z,11.52
2022-10-30T14:40:36.775Z,8.43
2022-10-30T14:45:49.565Z,12.80
2022-10-30T14:51:01.553Z,17.60
2022-10-30T14:56:11.859Z,8.88
2022-10-30T15:01:25.799Z,9.30
2022-10-30T15:06:35.642Z,12.30
2022-10-30T15:11:56.310Z,10.57
2022-10-30T15:17:01.637Z,11.02
2022-10-30T15:27:16.900Z,11.15
2022-10-30T15:32:23.193Z,13.00
2022-10-30T15:37:26.999Z,13.82
2022-10-30T15:42:30.307Z,10.45
2022-10-30T15:47:35.116Z,11.55
2022-10-30T15:52:42.359Z,12.93
2022-10-30T15:58:02.826Z,13.30
2022-10-30T16:03:16.538Z,14.32
2022-10-30T16:08:21.409Z,13.95
2022-10-30T16:13:30.447Z,17.25
2022-10-30T16:18:36.812Z,14.85
2022-10-30T16:23:42.585Z,14.13
2022-10-30T16:28:47.846Z,13.07
2022-10-30T16:33:53.395Z,14.77
2022-10-30T16:38:57.787Z,16.45
2022-10-30T16:44:17.501Z,16.37
2022-10-30T16:49:26.728Z,15.40
2022-10-30T16:54:33.380Z,11.15
2022-10-30T16:59:49.696Z,17.58
2022-10-30T17:05:08.816Z,15.73
2022-10-30T17:10:35.217Z,13.10
2022-10-30T17:15:40.586Z,13.25
2022-10-30T17:20:46.771Z,13.18
2022-10-30T17:25:51.033Z,15.48
2022-10-30T17:30:55.153Z,14.90
2022-10-30T17:36:00.917Z,19.17
2022-10-30T17:41:05.656Z,14.13
2022-10-30T17:46:09.944Z,26.73
2022-10-30T17:51:16.609Z,18.58
2022-10-30T17:56:30.527Z,21.02
2022-10-30T18:01:34.701Z,19.50
2022-10-30T18:06:40.715Z,22.83
2022-10-30T18:11:44.514Z,22.73
2022-10-30T18:16:54.521Z,20.02
2022-10-30T18:22:01.641Z,21.98
2022-10-30T18:27:05.189Z,32.92
2022-10-30T18:32:10.039Z,15.88
2022-10-30T18:37:15.356Z,19.00
2022-10-30T18:42:19.288Z,18.67
2022-10-30T18:47:23.987Z,20.58
2022-10-30T18:52:28.976Z,17.23
2022-10-30T18:57:32.164Z,16.40
2022-10-30T19:02:35.492Z,21.40
2022-10-30T19:07:39.955Z,14.70
2022-10-30T19:13:04.210Z,15.97
2022-10-30T19:18:07.193Z,17.70
2022-10-30T19:23:15.146Z,12.02
2022-10-30T19:28:20.326Z,13.60
2022-10-30T19:33:24.930Z,14.60
2022-10-30T19:38:30.806Z,16.47
2022-10-30T19:43:34.553Z,12.60
2022-10-30T19:48:56.608Z,15.15
2022-10-30T19:54:02.000Z,14.18
2022-10-30T19:59:09.680Z,15.57
2022-10-30T20:04:13.145Z,19.95
2022-10-30T20:09:17.764Z,19.75
2022-10-30T20:14:20.856Z,23.60
2022-10-30T20:19:28.286Z,26.75
2022-10-30T20:24:32.876Z,24.02
2022-10-30T20:29:36.891Z,20.17
2022-10-30T20:34:40.090Z,21.40
2022-10-30T20:39:44.545Z,19.10
2022-10-30T20:44:48.074Z,18.38
2022-10-30T20:49:51.515Z,23.40
2022-10-30T20:54:56.078Z,19.20
2022-10-30T20:59:59.267Z,21.70
2022-10-30T21:05:12.172Z,21.85
2022-10-30T21:10:30.478Z,19.83
2022-10-30T21:15:33.894Z,18.23
2022-10-30T21:20:37.551Z,28.73
2022-10-30T21:25:42.026Z,25.25
2022-10-30T21:30:45.433Z,25.47
2022-10-30T21:35:48.675Z,19.05
2022-10-30T21:40:56.727Z,24.52
2022-10-30T21:46:03.948Z,29.88
2022-10-30T21:51:09.827Z,23.10
2022-10-30T21:56:16.557Z,28.75
2022-10-30T22:01:22.137Z,29.15
2022-10-30T22:06:26.549Z,27.45
2022-10-30T22:11:31.555Z,25.90
2022-10-30T22:16:36.266Z,27.23
2022-10-30T22:21:39.498Z,35.28
2022-10-30T22:26:44.297Z,32.33
2022-10-30T22:31:47.551Z,34.42
2022-10-30T22:36:51.127Z,28.63
2022-10-30T22:41:55.806Z,33.08
2022-10-30T22:46:59.359Z,30.50
2022-10-30T22:52:02.524Z,30.80
2022-10-30T22:57:06.953Z,37.25
2022-10-30T23:02:10.302Z,27.43
2022-10-30T23:07:14.143Z,29.48
2022-10-30T23:12:18.683Z,35.95
2022-10-30T23:17:21.753Z,28.50
2022-10-30T23:22:25.069Z,28.05
2022-10-30T23:27:28.556Z,36.72
2022-10-30T23:32:32.101Z,31.40
2022-10-30T23:37:35.473Z,40.70
2022-10-30T23:42:40.511Z,37.45
2022-10-30T23:47:43.658Z,36.43
2022-10-30T23:52:46.888Z,32.30
2022-10-30T23:57:51.385Z,36.42
